Time;durP1;ratioP1;P1;durP2;ratioP2;P2;SDS_P1;SDS_P2;PMS_P1;PMS_P2;Temp;Humidity;BMP_temperature;BMP_pressure;BME280_temperature;BME280_humidity;BME280_pressure;Samples;Min_cycle;Max_cycle;Signal;HPM_P1;HPM_P2
2023/07/16 00:01:04;;;;;;;1.20;1.00;;;;;;;22.54;73.39;99384.28;5114299;28;20093;-62
2023/07/16 00:03:33;;;;;;;1.48;1.10;;;;;;;22.49;73.39;99373.28;5114613;28;20428;-62
2023/07/16 00:06:03;;;;;;;1.52;1.27;;;;;;;22.51;73.61;99387.03;5114257;28;20516;-63
2023/07/16 00:08:32;;;;;;;1.52;1.42;;;;;;;22.46;73.52;99373.44;5114584;28;20038;-63
2023/07/16 00:11:04;;;;;;;1.10;0.90;;;;;;;22.43;73.76;99383.19;5114124;28;20074;-62
2023/07/16 00:13:33;;;;;;;2.72;1.77;;;;;;;22.39;73.91;99377.28;5114230;28;20093;-62
2023/07/16 00:16:02;;;;;;;1.42;1.20;;;;;;;22.41;73.75;99380.63;5114136;28;20054;-63
2023/07/16 00:18:31;;;;;;;2.00;1.65;;;;;;;22.40;73.60;99368.56;5114136;28;20044;-63
2023/07/16 00:20:59;;;;;;;1.10;0.95;;;;;;;22.42;73.81;99366.72;5114127;28;20135;-62
2023/07/16 00:23:28;;;;;;;2.08;1.40;;;;;;;22.43;73.74;99363.22;5114157;28;20493;-62
2023/07/16 00:25:57;;;;;;;1.37;1.10;;;;;;;22.46;73.47;99368.22;5113770;28;20065;-63
2023/07/16 00:28:27;;;;;;;1.10;0.77;;;;;;;22.48;73.51;99368.97;5114327;28;20268;-63
2023/07/16 00:30:56;;;;;;;1.77;1.65;;;;;;;22.50;73.42;99372.38;5113208;28;20124;-63
2023/07/16 00:33:26;;;;;;;4.20;2.85;;;;;;;22.45;73.30;99371.78;5112684;28;20511;-62
2023/07/16 00:35:54;;;;;;;6.13;1.98;;;;;;;22.40;73.53;99358.16;5113979;28;20044;-62
2023/07/16 00:38:23;;;;;;;1.77;1.38;;;;;;;22.33;73.58;99367.22;5114219;28;20090;-62
2023/07/16 00:40:52;;;;;;;1.30;1.00;;;;;;;22.36;73.49;99377.44;5113949;28;20044;-62
2023/07/16 00:43:21;;;;;;;2.10;1.50;;;;;;;22.34;73.71;99363.69;5112990;28;20342;-62
2023/07/16 00:45:51;;;;;;;2.90;1.27;;;;;;;22.37;73.58;99363.53;5113832;28;20363;-63
2023/07/16 00:48:21;;;;;;;1.73;1.50;;;;;;;22.34;73.70;99366.28;5113910;28;20261;-63
2023/07/16 00:50:51;;;;;;;;;;;;;;;22.32;73.64;99360.34;5115741;28;20048;-62
2023/07/16 00:53:21;;;;;;;3.45;1.73;;;;;;;22.30;73.66;99354.38;5118239;28;20022;-62
2023/07/16 00:55:50;;;;;;;1.13;0.90;;;;;;;22.27;73.57;99349.34;5118211;28;20135;-62
2023/07/16 00:58:18;;;;;;;2.27;1.47;;;;;;;22.19;73.83;99355.88;5116999;28;20092;-62
2023/07/16 01:00:49;;;;;;;2.97;2.30;;;;;;;22.16;73.88;99349.06;5118236;28;20432;-62
2023/07/16 01:03:19;;;;;;;1.35;1.23;;;;;;;22.16;74.14;99338.69;5117758;28;20040;-62
2023/07/16 01:05:56;;;;;;;1.38;0.90;;;;;;;22.11;74.29;99339.84;5117953;28;20036;-62
2023/07/16 01:08:32;;;;;;;1.38;1.20;;;;;;;22.06;74.56;99342.69;5118030;28;20413;-63
2023/07/16 01:11:02;;;;;;;1.17;0.98;;;;;;;22.06;74.44;99342.69;5116801;28;20047;-62
2023/07/16 01:13:35;;;;;;;3.53;1.98;;;;;;;22.01;74.55;99342.06;5117539;28;20048;-62
2023/07/16 01:16:05;;;;;;;1.20;1.10;;;;;;;21.98;74.86;99335.28;5117549;28;20039;-62
2023/07/16 01:18:35;;;;;;;1.33;1.23;;;;;;;21.97;74.83;99335.38;5117502;27;20075;-62
2023/07/16 01:21:04;;;;;;;0.88;0.88;;;;;;;21.95;75.10;99335.44;5117771;28;20127;-63
2023/07/16 01:23:51;;;;;;;1.23;0.98;;;;;;;21.89;75.07;99334.91;5116139;28;20113;-62
2023/07/16 01:26:34;;;;;;;1.75;1.20;;;;;;;21.92;75.05;99332.16;5116972;28;20062;-62
2023/07/16 01:29:19;;;;;;;1.60;1.42;;;;;;;21.88;75.09;99328.88;5116508;28;20101;-62
2023/07/16 01:31:51;;;;;;;1.65;1.25;;;;;;;21.83;75.29;99330.03;5116078;28;20043;-62
2023/07/16 01:34:22;;;;;;;3.60;1.90;;;;;;;21.78;75.30;99332.03;5117165;28;20043;-63
2023/07/16 01:36:51;;;;;;;1.58;1.15;;;;;;;21.80;75.26;99324.97;5116303;28;20514;-62
2023/07/16 01:39:20;;;;;;;5.22;2.25;;;;;;;21.76;75.45;99329.47;5117401;28;20043;-63
2023/07/16 01:41:49;;;;;;;;;;;;;;;21.75;75.59;99319.19;5117475;28;20127;-63
2023/07/16 01:44:19;;;;;;;1.70;1.25;;;;;;;21.76;75.49;99318.28;5116037;28;20254;-62
2023/07/16 01:47:05;;;;;;;1.27;1.17;;;;;;;21.74;75.38;99320.13;5115704;28;20044;-62
2023/07/16 01:49:33;;;;;;;1.60;1.42;;;;;;;21.73;75.48;99315.81;5117219;28;20468;-63
2023/07/16 01:52:04;;;;;;;5.60;1.42;;;;;;;21.72;75.70;99311.53;5117113;28;20044;-63
2023/07/16 01:54:34;;;;;;;1.55;1.27;;;;;;;21.73;75.87;99313.22;5117061;28;20047;-62
2023/07/16 01:57:03;;;;;;;4.68;2.83;;;;;;;21.70;75.82;99310.78;5116712;27;20039;-63
2023/07/16 01:59:34;;;;;;;3.10;1.58;;;;;;;21.67;75.70;99318.72;5115511;28;20044;-62
2023/07/16 02:02:03;;;;;;;1.10;0.90;;;;;;;21.66;75.99;99312.72;5115091;28;20051;-62
2023/07/16 02:04:32;;;;;;;1.67;1.48;;;;;;;21.65;75.68;99315.38;5115699;28;20039;-62
2023/07/16 02:07:00;;;;;;;1.45;1.27;;;;;;;21.66;75.93;99311.88;5115564;28;20175;-62
2023/07/16 02:09:30;;;;;;;2.83;1.67;;;;;;;21.66;75.88;99311.88;5116766;28;20481;-63
2023/07/16 02:11:59;;;;;;;1.92;1.48;;;;;;;21.68;75.90;99310.03;5116485;27;20032;-63
2023/07/16 02:14:29;;;;;;;1.45;1.35;;;;;;;21.67;75.59;99308.34;5116485;28;20108;-63
2023/07/16 02:16:59;;;;;;;1.88;1.73;;;;;;;21.70;75.52;99303.84;5115162;28;20050;-62
2023/07/16 02:19:28;;;;;;;0.88;0.82;;;;;;;21.73;75.48;99302.84;5115186;28;20075;-62
2023/07/16 02:21:57;;;;;;;2.67;1.23;;;;;;;21.65;75.38;99304.97;5116283;28;20070;-62
2023/07/16 02:24:29;;;;;;;1.38;1.27;;;;;;;21.63;75.40;99302.47;5116544;28;20287;-63
2023/07/16 02:26:58;;;;;;;1.35;1.05;;;;;;;21.56;75.70;99310.66;5115848;28;20497;-62
2023/07/16 02:29:27;;;;;;;1.40;1.10;;;;;;;21.50;75.94;99316.19;5116425;28;20497;-62
2023/07/16 02:31:56;;;;;;;1.45;1.25;;;;;;;21.46;76.25;99312.03;5116040;28;20280;-62
2023/07/16 02:34:26;;;;;;;1.67;1.33;;;;;;;21.51;76.01;99323.03;5116091;28;20512;-62
2023/07/16 02:36:55;;;;;;;1.58;1.42;;;;;;;21.49;76.25;99314.50;5115977;28;20043;-62
2023/07/16 02:39:25;;;;;;;1.25;1.15;;;;;;;21.48;76.46;99312.78;5115952;28;20039;-62
2023/07/16 02:41:54;;;;;;;2.92;1.13;;;;;;;21.50;76.21;99309.22;5115963;28;20451;-62
2023/07/16 02:44:23;;;;;;;3.05;1.85;;;;;;;21.53;75.96;99310.81;5116131;28;20070;-62
2023/07/16 02:46:52;;;;;;;1.98;1.38;;;;;;;21.51;75.81;99302.25;5115736;28;20059;-62
2023/07/16 02:49:23;;;;;;;2.63;2.15;;;;;;;21.50;75.92;99305.78;5115720;28;20062;-62
2023/07/16 02:51:53;;;;;;;1.80;1.67;;;;;;;21.48;75.80;99305.84;5116051;28;20051;-62
2023/07/16 02:54:22;;;;;;;2.33;1.98;;;;;;;21.44;75.76;99313.88;5116195;28;20051;-63
2023/07/16 02:56:51;;;;;;;3.10;1.17;;;;;;;21.42;75.92;99313.13;5115860;28;20067;-62
2023/07/16 02:59:20;;;;;;;3.47;1.87;;;;;;;21.46;75.96;99309.44;5114332;28;20284;-62
2023/07/16 03:01:49;;;;;;;2.55;1.50;;;;;;;21.48;75.80;99323.19;5115536;28;20689;-62
2023/07/16 03:04:18;;;;;;;1.20;1.08;;;;;;;21.36;75.97;99324.66;5115691;28;20404;-62
2023/07/16 03:06:47;;;;;;;1.98;1.45;;;;;;;21.34;75.95;99326.50;5114179;28;20096;-62
2023/07/16 03:09:17;;;;;;;1.52;1.20;;;;;;;21.38;75.88;99322.81;5115291;28;20042;-62
2023/07/16 03:11:46;;;;;;;1.35;1.23;;;;;;;21.38;75.72;99326.25;5115429;28;20126;-62
2023/07/16 03:14:15;;;;;;;2.90;1.77;;;;;;;21.28;75.93;99325.03;5114285;28;20126;-62
2023/07/16 03:16:44;;;;;;;0.98;0.93;;;;;;;21.26;76.17;99323.41;5113983;28;20348;-62
2023/07/16 03:19:13;;;;;;;1.63;1.10;;;;;;;21.28;76.27;99327.63;5115158;28;20055;-62
2023/07/16 03:21:42;;;;;;;3.03;1.90;;;;;;;21.28;76.11;99327.63;5115170;28;20040;-62
2023/07/16 03:24:11;;;;;;;2.28;1.67;;;;;;;21.28;76.13;99325.03;5113923;28;20493;-62
2023/07/16 03:26:41;;;;;;;1.25;1.08;;;;;;;21.33;76.36;99330.84;5113368;28;20096;-62
2023/07/16 03:29:10;;;;;;;2.78;1.27;;;;;;;21.33;76.31;99341.22;5114037;28;20067;-62
2023/07/16 03:31:39;;;;;;;2.47;1.95;;;;;;;21.28;76.12;99338.00;5113719;28;20044;-63
2023/07/16 03:34:10;;;;;;;2.40;1.88;;;;;;;21.33;76.26;99346.41;5114879;28;20097;-63
2023/07/16 03:36:39;;;;;;;1.73;1.30;;;;;;;21.32;76.28;99344.75;5113702;28;20118;-62
2023/07/16 03:39:09;;;;;;;3.42;1.83;;;;;;;21.36;76.40;99335.03;5113815;28;20101;-62
2023/07/16 03:41:38;;;;;;;2.58;2.00;;;;;;;21.41;76.10;99342.59;5114696;28;20043;-62
2023/07/16 03:44:08;;;;;;;1.63;1.30;;;;;;;21.47;76.05;99334.50;5114972;28;20408;-62
2023/07/16 03:46:38;;;;;;;1.90;1.67;;;;;;;21.51;76.03;99334.28;5114927;28;20052;-62
2023/07/16 03:49:08;;;;;;;7.60;1.10;;;;;;;21.53;75.80;99331.59;5114494;28;20066;-62
2023/07/16 03:51:37;;;;;;;2.22;1.95;;;;;;;21.56;75.80;99341.81;5113785;28;20044;-62
2023/07/16 03:54:06;;;;;;;2.08;1.15;;;;;;;21.60;75.68;99343.34;5113627;28;20054;-62
2023/07/16 03:56:35;;;;;;;3.28;1.65;;;;;;;21.64;75.50;99337.09;5114445;28;20039;-62
2023/07/16 03:59:04;;;;;;;2.50;1.73;;;;;;;21.64;75.66;99335.34;5113246;28;20039;-62
2023/07/16 04:01:34;;;;;;;1.53;1.07;;;;;;;21.73;75.74;99344.41;5114481;28;20064;-62
2023/07/16 04:04:03;;;;;;;2.38;1.88;;;;;;;21.73;75.42;99344.41;5113528;28;20779;-63
2023/07/16 04:06:32;;;;;;;1.60;1.50;;;;;;;21.78;75.57;99350.22;5114670;28;20051;-63
2023/07/16 04:09:01;;;;;;;1.23;1.10;;;;;;;21.83;75.63;99345.63;5114297;28;20031;-63
2023/07/16 04:11:29;;;;;;;0.85;0.85;;;;;;;21.88;75.40;99343.66;5114262;28;20039;-62
2023/07/16 04:13:58;;;;;;;1.77;1.58;;;;;;;21.95;75.55;99358.00;5114241;28;20564;-62
2023/07/16 04:16:27;;;;;;;2.07;1.43;;;;;;;22.00;75.47;99353.41;5114495;28;20105;-62
2023/07/16 04:18:57;;;;;;;1.75;1.33;;;;;;;22.05;75.47;99355.78;5114472;28;20068;-62
2023/07/16 04:21:27;;;;;;;2.00;1.50;;;;;;;22.10;75.35;99359.78;5114098;28;20501;-62
2023/07/16 04:23:55;;;;;;;1.50;1.40;;;;;;;22.16;75.27;99359.47;5114426;28;20036;-62
2023/07/16 04:26:24;;;;;;;1.35;1.25;;;;;;;22.26;75.29;99365.88;5113552;28;20113;-62
2023/07/16 04:28:53;;;;;;;2.55;1.90;;;;;;;22.34;75.10;99368.88;5113959;28;20056;-63
2023/07/16 04:31:22;;;;;;;1.10;1.02;;;;;;;22.39;74.85;99377.28;5114000;28;20047;-62
2023/07/16 04:33:51;;;;;;;1.80;1.60;;;;;;;22.46;74.80;99365.63;5114282;28;20489;-63
2023/07/16 04:36:21;;;;;;;1.42;0.82;;;;;;;22.61;74.52;99372.63;5114256;28;20374;-62
2023/07/16 04:38:50;;;;;;;0.82;0.82;;;;;;;22.72;74.30;99368.63;5114029;28;20069;-63
2023/07/16 04:41:22;;;;;;;1.60;1.50;;;;;;;22.83;74.16;99379.25;5114193;28;20044;-62
2023/07/16 04:43:51;;;;;;;0.65;0.65;;;;;;;22.89;73.99;99381.53;5114218;28;20051;-63
2023/07/16 04:46:20;;;;;;;1.70;1.40;;;;;;;22.99;73.95;99372.25;5113838;28;20044;-62
2023/07/16 04:48:49;;;;;;;1.23;1.00;;;;;;;23.12;73.58;99381.06;5113781;28;20509;-62
2023/07/16 04:51:18;;;;;;;6.25;1.17;;;;;;;23.24;73.28;99377.78;5113847;28;20096;-62
2023/07/16 04:53:49;;;;;;;0.65;0.65;;;;;;;23.34;73.25;99384.16;5113813;28;20044;-62
2023/07/16 04:56:18;;;;;;;1.63;1.45;;;;;;;23.45;72.93;99384.38;5113873;28;20071;-62
2023/07/16 04:58:47;;;;;;;0.90;0.90;;;;;;;23.61;72.57;99379.13;5113742;28;20089;-62
2023/07/16 05:01:16;;;;;;;1.88;1.35;;;;;;;23.78;72.14;99384.16;5114201;28;20028;-62
2023/07/16 05:03:45;;;;;;;2.03;1.20;;;;;;;23.91;71.96;99385.13;5114023;28;20068;-62
2023/07/16 05:06:14;;;;;;;0.70;0.70;;;;;;;23.99;71.60;99388.94;5113973;28;20451;-62
2023/07/16 05:08:43;;;;;;;2.03;1.35;;;;;;;24.14;71.54;99387.22;5113620;28;20040;-62
2023/07/16 05:11:17;;;;;;;1.02;0.90;;;;;;;24.31;71.05;99378.34;5113894;28;20477;-62
2023/07/16 05:13:46;;;;;;;1.17;1.08;;;;;;;24.47;70.50;99379.09;5113672;28;20044;-62
2023/07/16 05:16:15;;;;;;;1.17;1.08;;;;;;;24.60;70.20;99375.63;5114138;28;20039;-62
2023/07/16 05:18:45;;;;;;;5.90;2.35;;;;;;;24.79;70.03;99382.31;5113862;28;20089;-62
2023/07/16 05:21:14;;;;;;;2.25;1.20;;;;;;;24.88;69.65;99379.97;5113657;28;20046;-63
2023/07/16 05:23:43;;;;;;;1.85;1.30;;;;;;;24.94;69.52;99379.56;5113461;28;20058;-62
2023/07/16 05:26:11;;;;;;;1.30;1.15;;;;;;;25.05;69.02;99377.09;5113450;28;20040;-62
2023/07/16 05:28:42;;;;;;;0.95;0.85;;;;;;;25.21;68.71;99377.78;5113202;28;20528;-62
2023/07/16 05:31:12;;;;;;;0.68;0.68;;;;;;;25.40;67.96;99379.19;5113523;28;20048;-63
2023/07/16 05:33:40;;;;;;;1.10;1.00;;;;;;;25.58;67.31;99383.25;5113727;28;20040;-63
2023/07/16 05:36:09;;;;;;;0.70;0.70;;;;;;;25.76;66.45;99382.84;5113424;28;20050;-62
2023/07/16 05:38:38;;;;;;;0.47;0.47;;;;;;;25.96;66.02;99381.50;5117048;28;20545;-62
2023/07/16 05:41:08;;;;;;;1.67;1.20;;;;;;;26.11;65.21;99375.22;5117288;28;20431;-63
2023/07/16 05:43:36;;;;;;;;;;;;;;;26.30;64.46;99380.03;5117509;28;20063;-62
2023/07/16 05:46:07;;;;;;;1.00;0.73;;;;;;;26.41;63.61;99383.56;5116679;28;19934;-63
2023/07/16 05:48:36;;;;;;;0.70;0.70;;;;;;;26.53;62.94;99381.84;5116921;28;20403;-63
2023/07/16 05:51:05;;;;;;;0.73;0.60;;;;;;;26.61;62.76;99380.34;5116896;28;20071;-63
2023/07/16 05:53:34;;;;;;;1.92;1.40;;;;;;;26.74;62.77;99385.56;5117112;28;20063;-62
2023/07/16 05:56:02;;;;;;;1.48;1.00;;;;;;;26.89;62.10;99375.81;5116732;28;20058;-62
2023/07/16 05:58:31;;;;;;;1.05;0.88;;;;;;;27.06;61.72;99378.03;5116790;28;20044;-62
2023/07/16 06:01:00;;;;;;;1.73;1.42;;;;;;;27.25;61.04;99380.97;5116731;28;20042;-62
2023/07/16 06:03:30;;;;;;;1.45;1.35;;;;;;;27.43;60.45;99371.75;5116559;28;20109;-63
2023/07/16 06:05:59;;;;;;;1.85;1.40;;;;;;;27.59;59.69;99382.81;5116619;28;20048;-63
2023/07/16 06:08:28;;;;;;;3.20;2.05;;;;;;;27.77;59.02;99373.53;5116500;28;20043;-62
2023/07/16 06:10:57;;;;;;;1.42;1.02;;;;;;;27.98;57.60;99380.72;5116779;28;20396;-63
2023/07/16 06:13:26;;;;;;;0.70;0.70;;;;;;;28.07;57.30;99375.63;5116444;28;20504;-63
2023/07/16 06:15:56;;;;;;;1.17;0.98;;;;;;;28.14;57.04;99371.56;5115405;28;20435;-61
2023/07/16 06:18:25;;;;;;;1.17;1.08;;;;;;;28.22;57.59;99377.03;5116423;28;20047;-62
2023/07/16 06:20:55;;;;;;;2.00;1.52;;;;;;;28.26;57.79;99381.13;5116274;28;20126;-62
2023/07/16 06:23:26;;;;;;;1.92;1.73;;;;;;;28.37;57.53;99383.72;5116602;28;20469;-61
2023/07/16 06:25:56;;;;;;;1.90;1.05;;;;;;;28.46;56.85;99377.75;5115920;28;20047;-63
2023/07/16 06:28:25;;;;;;;1.23;1.13;;;;;;;28.55;56.58;99377.00;5115821;28;20093;-63
2023/07/16 06:30:53;;;;;;;1.58;1.15;;;;;;;28.66;56.31;99388.50;5116386;28;20039;-63
2023/07/16 06:33:22;;;;;;;;;;;;;;;28.78;56.41;99383.09;5116734;28;20493;-62
2023/07/16 06:35:51;;;;;;;1.65;1.55;;;;;;;28.91;56.24;99386.44;5116313;28;20284;-63
2023/07/16 06:38:21;;;;;;;1.50;1.15;;;;;;;28.97;55.29;99378.03;5115924;28;20054;-65
2023/07/16 06:40:51;;;;;;;1.02;0.90;;;;;;;29.00;54.46;99380.41;5115958;28;20051;-63
2023/07/16 06:43:20;;;;;;;2.70;1.83;;;;;;;29.10;54.10;99370.84;5115787;28;20489;-63
2023/07/16 06:45:50;;;;;;;0.80;0.80;;;;;;;29.09;53.28;99378.81;5116035;28;20485;-63
2023/07/16 06:48:19;;;;;;;2.33;1.33;;;;;;;29.14;53.30;99376.66;5116048;28;20423;-64
2023/07/16 06:50:48;;;;;;;3.22;2.50;;;;;;;29.15;53.00;99387.03;5115967;28;20093;-62
2023/07/16 06:53:16;;;;;;;1.45;1.33;;;;;;;29.25;52.92;99391.59;5115661;28;20036;-62
2023/07/16 06:55:48;;;;;;;0.90;0.85;;;;;;;29.34;52.38;99396.09;5115971;28;20459;-62
2023/07/16 06:58:20;;;;;;;4.30;1.80;;;;;;;29.40;52.17;99385.06;5115563;28;20496;-63
2023/07/16 07:00:50;;;;;;;0.95;0.90;;;;;;;29.33;51.94;99391.78;5115772;27;20137;-63
2023/07/16 07:03:19;;;;;;;0.95;0.85;;;;;;;29.31;51.76;99398.97;5115442;28;20123;-64
2023/07/16 07:05:48;;;;;;;1.08;0.93;;;;;;;29.33;52.06;99389.16;5115457;28;20042;-62
2023/07/16 07:08:17;;;;;;;1.10;0.98;;;;;;;29.49;52.08;99400.09;5115335;28;20499;-61
2023/07/16 07:10:48;;;;;;;1.67;1.10;;;;;;;29.65;51.63;99400.47;5115310;28;20039;-61
2023/07/16 07:13:16;;;;;;;0.68;0.68;;;;;;;29.68;51.06;99405.50;5115244;28;20051;-64
2023/07/16 07:15:45;;;;;;;1.33;1.00;;;;;;;29.72;51.47;99409.53;5115218;28;20039;-64
2023/07/16 07:18:15;;;;;;;1.58;1.42;;;;;;;29.82;51.21;99413.94;5115449;28;20036;-62
2023/07/16 07:20:43;;;;;;;2.75;1.92;;;;;;;29.94;51.13;99417.34;5115353;28;20401;-62
2023/07/16 07:23:12;;;;;;;1.20;1.10;;;;;;;29.99;50.63;99427.47;5115391;28;20067;-62
2023/07/16 07:25:41;;;;;;;1.00;0.82;;;;;;;29.99;50.37;99436.22;5115293;28;20104;-60
2023/07/16 07:28:11;;;;;;;1.13;0.90;;;;;;;29.97;50.65;99438.09;5114995;28;20127;-62
2023/07/16 07:30:41;;;;;;;1.75;1.33;;;;;;;29.98;50.43;99438.94;5115166;27;20071;-63
2023/07/16 07:33:09;;;;;;;1.98;1.52;;;;;;;29.93;50.59;99431.44;5115212;28;20040;-64
2023/07/16 07:35:38;;;;;;;0.80;0.80;;;;;;;29.89;50.23;99435.31;5114720;28;20228;-63
2023/07/16 07:38:07;;;;;;;1.20;0.90;;;;;;;29.92;49.68;99456.13;5114801;28;20047;-64
2023/07/16 07:40:36;;;;;;;3.25;1.05;;;;;;;29.87;50.08;99447.78;5113883;28;20043;-63
2023/07/16 07:43:05;;;;;;;0.85;0.82;;;;;;;29.88;49.97;99441.53;5114681;28;20092;-61
2023/07/16 07:45:35;;;;;;;0.63;0.63;;;;;;;29.90;50.17;99446.69;5114678;28;20047;-61
2023/07/16 07:48:05;;;;;;;1.35;1.10;;;;;;;30.06;50.14;99450.53;5114956;28;20047;-63
2023/07/16 07:50:34;;;;;;;0.90;0.73;;;;;;;30.23;49.75;99454.34;5114520;28;20043;-66
2023/07/16 07:53:03;;;;;;;0.80;0.80;;;;;;;30.31;49.15;99452.72;5114847;28;20071;-63
2023/07/16 07:55:32;;;;;;;1.15;0.98;;;;;;;30.37;49.13;99452.25;5114473;28;20126;-63
2023/07/16 07:58:01;;;;;;;1.10;1.00;;;;;;;30.50;49.32;99455.47;5114465;28;20044;-63
2023/07/16 08:00:30;;;;;;;0.70;0.70;;;;;;;30.59;48.96;99455.66;5114139;28;20507;-64
2023/07/16 08:03:00;;;;;;;1.73;1.30;;;;;;;30.54;49.15;99460.50;5114413;28;20040;-64
2023/07/16 08:05:29;;;;;;;1.45;1.35;;;;;;;30.60;49.04;99452.03;5114645;28;20071;-63
2023/07/16 08:07:58;;;;;;;1.38;1.25;;;;;;;30.63;48.65;99457.03;5114897;28;20044;-64
2023/07/16 08:10:27;;;;;;;0.73;0.70;;;;;;;30.58;48.36;99453.97;5114508;28;20106;-62
2023/07/16 08:12:55;;;;;;;2.92;1.88;;;;;;;30.72;48.99;99453.59;5114564;28;20043;-63
2023/07/16 08:15:24;;;;;;;;;;;;;;;30.82;48.28;99457.13;5115334;28;20130;-63
2023/07/16 08:17:54;;;;;;;1.17;0.88;;;;;;;30.93;48.87;99460.50;5114120;28;19920;-63
2023/07/16 08:20:24;;;;;;;1.17;1.00;;;;;;;30.99;47.82;99459.13;5114474;28;20042;-62
2023/07/16 08:22:53;;;;;;;0.95;0.88;;;;;;;31.00;48.15;99459.00;5114397;28;20122;-62
2023/07/16 08:25:22;;;;;;;0.85;0.70;;;;;;;31.02;48.17;99458.88;5114055;28;20043;-62
2023/07/16 08:27:51;;;;;;;0.75;0.75;;;;;;;31.07;48.05;99467.22;5114019;28;20075;-64
2023/07/16 08:30:20;;;;;;;0.93;0.85;;;;;;;30.99;47.74;99461.78;5113882;28;20036;-64
2023/07/16 08:32:48;;;;;;;0.65;0.60;;;;;;;31.00;47.64;99459.00;5113992;28;20119;-64
2023/07/16 08:35:19;;;;;;;0.75;0.68;;;;;;;31.14;47.83;99458.63;5113904;28;20083;-63
2023/07/16 08:37:50;;;;;;;0.45;0.45;;;;;;;31.20;47.41;99469.56;5113975;28;20039;-64
2023/07/16 08:40:20;;;;;;;0.85;0.85;;;;;;;31.13;47.48;99471.94;5113035;28;20043;-62
2023/07/16 08:42:50;;;;;;;1.23;1.10;;;;;;;31.03;47.44;99464.00;5114155;28;20096;-62
2023/07/16 08:45:23;;;;;;;0.70;0.68;;;;;;;30.98;47.54;99466.19;5114782;28;20389;-63
2023/07/16 08:47:53;;;;;;;6.75;2.33;;;;;;;31.16;47.51;99466.38;5114133;28;20052;-63
2023/07/16 08:50:23;;;;;;;1.15;1.05;;;;;;;31.34;47.52;99459.47;5114097;28;20516;-64
2023/07/16 08:52:55;;;;;;;1.27;1.17;;;;;;;31.28;46.69;99453.91;5113800;28;20055;-63
2023/07/16 08:55:24;;;;;;;0.95;0.88;;;;;;;31.35;47.23;99457.66;5114062;28;20044;-62
2023/07/16 08:57:53;;;;;;;2.05;0.85;;;;;;;31.36;46.65;99457.50;5113989;28;20469;-62
2023/07/16 09:00:22;;;;;;;0.98;0.95;;;;;;;31.34;46.76;99453.38;5113762;28;20043;-62
2023/07/16 09:02:52;;;;;;;0.60;0.60;;;;;;;31.39;46.39;99451.13;5114034;28;20122;-64
2023/07/16 09:05:22;;;;;;;0.95;0.85;;;;;;;31.53;46.65;99458.69;5114165;28;20562;-63
2023/07/16 09:08:08;;;;;;;4.93;1.13;;;;;;;31.59;46.78;99458.94;5114019;28;20146;-63
2023/07/16 09:10:37;;;;;;;2.08;1.17;;;;;;;31.56;46.13;99459.22;5113798;28;20122;-64
2023/07/16 09:13:06;;;;;;;;;;;;;;;31.61;46.53;99458.81;5116983;28;20076;-63
2023/07/16 09:15:35;;;;;;;1.00;0.90;;;;;;;31.74;46.01;99447.00;5117608;28;19920;-63
2023/07/16 09:18:04;;;;;;;1.73;1.60;;;;;;;31.93;45.78;99455.84;5117543;28;20032;-63
2023/07/16 09:20:33;;;;;;;1.73;1.13;;;;;;;32.14;46.18;99448.59;5117533;27;20052;-63
2023/07/16 09:23:02;;;;;;;0.82;0.80;;;;;;;32.32;45.40;99446.91;5117808;28;20031;-63
2023/07/16 09:25:34;;;;;;;1.48;1.08;;;;;;;32.38;45.16;99454.22;5117446;28;20135;-63
2023/07/16 09:28:04;;;;;;;1.30;1.00;;;;;;;32.34;44.52;99458.16;5117203;28;20139;-63
2023/07/16 09:30:34;;;;;;;0.70;0.70;;;;;;;32.28;44.67;99456.06;5117206;28;20062;-63
2023/07/16 09:33:13;;;;;;;1.02;0.93;;;;;;;32.41;45.06;99457.44;5117261;28;20047;-63
2023/07/16 09:35:42;;;;;;;1.20;1.00;;;;;;;32.37;43.71;99460.50;5117250;28;20044;-63
2023/07/16 09:38:11;;;;;;;1.65;1.30;;;;;;;32.22;43.81;99462.78;5117213;28;20043;-64
2023/07/16 09:40:42;;;;;;;1.23;0.90;;;;;;;32.25;43.70;99457.19;5117349;28;20108;-62
2023/07/16 09:43:12;;;;;;;1.35;1.15;;;;;;;32.39;44.18;99459.38;5117162;28;20051;-63
2023/07/16 09:45:42;;;;;;;1.45;1.17;;;;;;;32.55;43.84;99469.38;5116987;27;20052;-63
2023/07/16 09:48:11;;;;;;;0.95;0.77;;;;;;;32.65;43.71;99470.16;5117243;28;20050;-63
2023/07/16 09:50:47;;;;;;;0.98;0.88;;;;;;;32.63;43.96;99466.00;5117157;27;20131;-64
2023/07/16 09:53:19;;;;;;;1.27;0.60;;;;;;;32.56;43.81;99471.03;5117484;28;20071;-62
2023/07/16 09:55:50;;;;;;;0.85;0.85;;;;;;;32.59;44.02;99469.91;5116901;28;20052;-63
2023/07/16 09:58:22;;;;;;;0.68;0.68;;;;;;;32.79;43.51;99472.31;5117102;28;20087;-63
2023/07/16 10:00:52;;;;;;;1.77;0.85;;;;;;;32.82;42.95;99471.19;5117047;28;20489;-63
2023/07/16 10:03:21;;;;;;;0.98;0.88;;;;;;;32.90;42.76;99469.47;5116726;28;20386;-63
2023/07/16 10:05:51;;;;;;;0.98;0.80;;;;;;;32.92;42.66;99472.78;5116947;28;20079;-62
2023/07/16 10:08:21;;;;;;;1.15;0.93;;;;;;;32.89;42.05;99478.41;5116935;28;20561;-63
2023/07/16 10:10:58;;;;;;;1.27;1.17;;;;;;;32.80;42.40;99473.97;5116454;28;20043;-63
2023/07/16 10:13:28;;;;;;;0.70;0.70;;;;;;;32.76;42.16;99477.06;5116862;28;20039;-63
2023/07/16 12:13:24;;;;;;;1.35;1.25;;;;;;;33.24;43.20;99431.81;5132895;27;20382;-62
2023/07/16 12:15:53;;;;;;;1.05;0.95;;;;;;;33.14;42.88;99433.72;5132266;27;20036;-62
2023/07/16 12:18:23;;;;;;;1.63;1.52;;;;;;;33.09;42.23;99432.34;5132013;28;20032;-62
2023/07/16 12:20:52;;;;;;;0.73;0.73;;;;;;;33.07;42.68;99433.47;5131815;28;20071;-62
2023/07/16 12:23:21;;;;;;;0.85;0.85;;;;;;;33.01;42.29;99428.75;5132143;28;20047;-62
2023/07/16 12:25:51;;;;;;;0.80;0.80;;;;;;;33.32;42.61;99431.91;5131799;27;20043;-63
2023/07/16 12:28:20;;;;;;;0.95;0.90;;;;;;;33.56;41.47;99429.50;5132456;28;20399;-63
2023/07/16 12:30:50;;;;;;;0.80;0.80;;;;;;;33.92;41.26;99425.81;5131681;27;20047;-62
2023/07/16 12:33:20;;;;;;;1.30;0.90;;;;;;;33.97;40.58;99418.22;5131621;27;20193;-62
2023/07/16 12:35:49;;;;;;;;;;;;;;;34.18;40.20;99424.00;5131997;27;20035;-62
2023/07/16 12:38:18;;;;;;;4.03;1.05;;;;;;;34.41;39.87;99420.81;5131939;27;19927;-63
2023/07/16 12:40:46;;;;;;;;;;;;;;;34.55;39.51;99423.72;5131926;27;20492;-62
2023/07/16 12:43:15;;;;;;;1.58;1.00;;;;;;;34.58;39.44;99420.75;5131403;27;19919;-62
2023/07/16 12:45:44;;;;;;;0.63;0.63;;;;;;;34.56;39.35;99416.59;5131649;28;20047;-62
2023/07/16 12:48:14;;;;;;;1.40;1.17;;;;;;;34.66;39.17;99422.59;5131295;28;20039;-62
2023/07/16 12:50:43;;;;;;;2.92;0.77;;;;;;;34.59;38.90;99418.91;5131636;27;20561;-61
2023/07/16 12:53:12;;;;;;;1.17;1.08;;;;;;;34.58;38.99;99409.31;5131288;27;20047;-62
2023/07/16 12:55:41;;;;;;;1.02;0.93;;;;;;;34.71;38.64;99404.38;5130181;28;20050;-62
2023/07/16 12:58:10;;;;;;;0.93;0.70;;;;;;;34.64;38.51;99406.84;5131466;28;20043;-62
2023/07/16 13:00:39;;;;;;;;;;;;;;;34.74;38.60;99404.06;5131824;27;20036;-62
2023/07/16 13:03:11;;;;;;;0.85;0.80;;;;;;;34.70;38.45;99405.34;5130985;27;19954;-62
2023/07/16 13:05:42;;;;;;;0.95;0.80;;;;;;;34.69;38.32;99409.00;5131039;28;20047;-62
2023/07/16 13:08:11;;;;;;;1.13;1.02;;;;;;;34.59;37.72;99408.31;5130956;27;20096;-62
2023/07/16 13:10:40;;;;;;;0.90;0.80;;;;;;;34.52;37.62;99402.78;5130907;28;20036;-62
2023/07/16 13:13:09;;;;;;;1.73;1.10;;;;;;;34.80;38.48;99412.19;5130562;27;20039;-62
2023/07/16 13:15:38;;;;;;;1.85;0.70;;;;;;;34.88;37.95;99409.56;5131135;28;20063;-61
2023/07/16 13:18:07;;;;;;;;;;;;;;;34.62;38.43;99413.31;5131134;27;20039;-63
2023/07/16 13:20:35;;;;;;;0.75;0.75;;;;;;;34.26;38.52;99412.63;5130707;27;19923;-62
2023/07/16 13:23:05;;;;;;;;;;;;;;;34.08;39.14;99420.63;5126981;27;20416;-62
2023/07/16 13:25:34;;;;;;;1.08;0.95;;;;;;;34.02;39.24;99418.59;5116916;28;19920;-62
2023/07/16 13:28:03;;;;;;;;;;;;;;;34.12;38.89;99421.97;5117292;27;20152;-62
2023/07/16 13:30:32;;;;;;;;;;;;;;;34.10;39.17;99408.06;5117527;28;20257;-62
2023/07/16 13:33:01;;;;;;;0.65;0.60;;;;;;;33.99;39.05;99421.53;5116692;28;20286;-62
2023/07/16 13:35:30;;;;;;;0.60;0.60;;;;;;;34.11;39.33;99409.72;5116783;27;20051;-62
2023/07/16 13:37:59;;;;;;;3.00;1.95;;;;;;;34.19;39.38;99417.69;5115707;28;20040;-62
2023/07/16 13:40:29;;;;;;;;;;;;;;;34.21;38.90;99415.75;5117369;28;20070;-62
2023/07/16 13:42:58;;;;;;;3.10;1.38;;;;;;;34.23;38.83;99413.78;5116620;28;20365;-62
2023/07/16 13:45:27;;;;;;;0.50;0.50;;;;;;;34.15;39.40;99415.53;5116913;28;20070;-63